Main page
METAR-TAF:

METAR-TAF

Airports :

Santa Bernardina International Airport

Durazno, Uruguay

latitude: 33-21S, longitude: 056-30W, elevation: 93 m

METAR: missing

Time: 01:32 (04:32 UTC)

Forecast

The report was made 4 hours and 57 minutes ago, at 23:35 UTC
Forecast valid from 26 at 00 UTC to 26 at 24 UTC
Wind 5 kt from the North/Northeast
Visibility 10 km or more
no clouds below 1500 m and no cumulonimbus
Temporary
from 26 at 03 UTC to 26 at 12 UTC
Visibility: 2000 m
Scattered clouds at a height of 1000 ft
mist
Temporary
from 26 at 04 UTC to 26 at 10 UTC
Visibility: 0800 m
Overcast at a height of 300 ft
fog

TAF: SUDU 252335Z 2600/2624 02005KT CAVOK TX24/2618Z TN10/2610Z TEMPO 2603/2612 2000 BR SCT010 TEMPO 2604/2610 0800 FG OVC003

Weather observations and forecasts of more than 4000 airports (METAR and TAF reports).

The available stations are represented by yellow and red dots on the map.

Hover mouse over dot to see the name of the station.

Then click to see weather observations and forecasts.

To change the map : click on the green buttons with a black cross to zoom in, on the green button with a dash to zoom out, or on the green arrows for adjacent maps.


METAR-TAF: